Time;durP1;ratioP1;P1;durP2;ratioP2;P2;SDS_P1;SDS_P2;PMS_P1;PMS_P2;Temp;Humidity;BMP_temperature;BMP_pressure;BME280_temperature;BME280_humidity;BME280_pressure;Samples;Min_cycle;Max_cycle;Signal;HPM_P1;HPM_P2
2022/03/01 00:00:40;;;;;;;10.13;3.95;;;;;;;;;;5034562;28;20493;-64
2022/03/01 00:03:07;;;;;;;11.43;3.20;;;;;;;;;;5048503;28;20029;-64
2022/03/01 00:05:33;;;;;;;10.35;3.08;;;;;;;;;;5041036;28;20033;-64
2022/03/01 00:07:59;;;;;;;10.85;2.90;;;;;;;;;;5038258;28;20018;-64
2022/03/01 00:10:25;;;;;;;20.65;4.07;;;;;;;;;;5046323;28;20136;-64
2022/03/01 00:12:52;;;;;;;11.98;3.08;;;;;;;;;;5051739;28;20053;-64
2022/03/01 00:15:18;;;;;;;11.25;3.00;;;;;;;;;;5051870;28;20047;-64
2022/03/01 00:17:44;;;;;;;12.00;3.30;;;;;;;;;;5051438;28;20074;-64
2022/03/01 00:20:10;;;;;;;10.00;3.72;;;;;;;;;;5051853;28;20037;-64
2022/03/01 00:22:37;;;;;;;6.85;2.90;;;;;;;;;;5051384;28;20102;-64
2022/03/01 00:25:03;;;;;;;13.85;2.88;;;;;;;;;;5051695;28;20559;-64
2022/03/01 00:27:29;;;;;;;7.03;3.00;;;;;;;;;;5053897;28;20078;-64
2022/03/01 00:29:56;;;;;;;13.02;4.95;;;;;;;;;;5056069;28;20021;-64
2022/03/01 00:32:22;;;;;;;14.07;3.33;;;;;;;;;;5055484;28;20039;-64
2022/03/01 00:34:48;;;;;;;12.27;3.22;;;;;;;;;;5055595;28;20397;-64
2022/03/01 00:37:14;;;;;;;9.85;2.65;;;;;;;;;;5055262;28;20033;-64
2022/03/01 00:39:40;;;;;;;10.45;3.00;;;;;;;;;;5055022;28;20373;-64
2022/03/01 00:42:07;;;;;;;10.65;3.55;;;;;;;;;;5055601;28;20025;-64
2022/03/01 00:44:33;;;;;;;10.48;2.85;;;;;;;;;;5055319;28;20029;-64
2022/03/01 00:46:59;;;;;;;13.13;3.78;;;;;;;;;;5055344;28;20033;-64
2022/03/01 00:49:25;;;;;;;10.52;3.10;;;;;;;;;;5055344;28;20025;-64
2022/03/01 00:51:51;;;;;;;12.30;5.03;;;;;;;;;;5054981;28;20029;-64
2022/03/01 00:54:17;;;;;;;12.60;3.28;;;;;;;;;;5055184;28;20104;-64
2022/03/01 00:56:44;;;;;;;13.20;3.92;;;;;;;;;;5054999;28;20076;-64
2022/03/01 00:59:10;;;;;;;10.05;3.40;;;;;;;;;;5055230;28;20075;-64
2022/03/01 01:01:37;;;;;;;8.40;3.30;;;;;;;;;;5054930;28;20069;-64
2022/03/01 01:04:03;;;;;;;13.95;3.38;;;;;;;;;;5055177;28;20104;-64
2022/03/01 01:06:29;;;;;;;14.55;3.30;;;;;;;;;;5054624;28;20108;-64
2022/03/01 01:08:55;;;;;;;13.13;3.45;;;;;;;;;;5054946;28;20037;-64
2022/03/01 01:11:23;;;;;;;14.88;3.80;;;;;;;;;;5054828;28;20048;-64
2022/03/01 01:13:49;;;;;;;15.07;5.07;;;;;;;;;;5054658;28;20078;-64
2022/03/01 01:16:15;;;;;;;13.70;3.80;;;;;;;;;;5054919;28;20432;-64
2022/03/01 01:18:45;;;;;;;9.55;3.67;;;;;;;;;;5054819;28;20025;-64
2022/03/01 01:21:12;;;;;;;14.23;3.92;;;;;;;;;;5054291;28;20033;-64
2022/03/01 01:23:38;;;;;;;11.48;2.97;;;;;;;;;;5054430;28;20029;-64
2022/03/01 01:26:04;;;;;;;10.70;3.72;;;;;;;;;;5054721;28;20104;-64
2022/03/01 01:28:30;;;;;;;15.88;3.40;;;;;;;;;;5054613;28;20029;-64
2022/03/01 01:30:56;;;;;;;14.23;3.20;;;;;;;;;;5054383;28;20078;-64
2022/03/01 01:33:22;;;;;;;11.60;3.75;;;;;;;;;;5054667;28;20045;-64
2022/03/01 01:35:49;;;;;;;10.15;3.13;;;;;;;;;;5053916;28;20086;-64
2022/03/01 01:38:15;;;;;;;12.02;3.40;;;;;;;;;;5053263;28;20025;-64
2022/03/01 01:40:41;;;;;;;8.85;2.78;;;;;;;;;;5047962;28;20034;-64
2022/03/01 01:43:07;;;;;;;7.82;2.92;;;;;;;;;;5045390;28;20163;-64
2022/03/01 01:45:33;;;;;;;7.40;2.75;;;;;;;;;;5034755;28;20021;-64
2022/03/01 01:48:01;;;;;;;6.72;2.83;;;;;;;;;;5050087;28;20029;-64
2022/03/01 01:50:28;;;;;;;13.63;3.83;;;;;;;;;;5054584;28;20082;-63
2022/03/01 01:52:54;;;;;;;8.43;3.08;;;;;;;;;;5054006;28;20028;-63
2022/03/01 01:55:21;;;;;;;12.95;3.25;;;;;;;;;;5046816;28;20056;-64
2022/03/01 01:57:47;;;;;;;10.82;3.03;;;;;;;;;;5034480;28;20461;-64
2022/03/01 02:00:14;;;;;;;15.38;4.82;;;;;;;;;;5034609;28;20032;-64
2022/03/01 02:02:41;;;;;;;12.07;3.30;;;;;;;;;;5051779;28;20479;-64
2022/03/01 02:05:07;;;;;;;7.13;3.65;;;;;;;;;;5054378;28;20033;-64
2022/03/01 02:07:34;;;;;;;7.82;3.05;;;;;;;;;;5054266;28;20025;-64
2022/03/01 02:10:00;;;;;;;11.75;3.25;;;;;;;;;;5054495;28;20033;-64
2022/03/01 02:12:27;;;;;;;11.02;3.08;;;;;;;;;;5054058;28;20129;-64
2022/03/01 02:14:53;;;;;;;11.07;3.38;;;;;;;;;;5054388;28;20037;-64
2022/03/01 02:17:19;;;;;;;11.15;3.92;;;;;;;;;;5051015;28;20021;-64
2022/03/01 02:19:48;;;;;;;15.75;3.40;;;;;;;;;;5050942;28;20021;-64
2022/03/01 02:22:14;;;;;;;8.63;3.22;;;;;;;;;;5045072;28;20087;-64
2022/03/01 02:24:41;;;;;;;10.23;3.00;;;;;;;;;;5044264;28;20171;-64
2022/03/01 02:27:07;;;;;;;7.78;3.22;;;;;;;;;;5041879;28;20481;-64
2022/03/01 02:29:33;;;;;;;11.88;4.22;;;;;;;;;;5043615;28;20493;-64
2022/03/01 02:32:04;;;;;;;8.77;3.00;;;;;;;;;;5045131;28;20032;-64
2022/03/01 02:34:31;;;;;;;10.48;3.03;;;;;;;;;;5046689;28;20106;-64
2022/03/01 02:36:57;;;;;;;11.32;3.80;;;;;;;;;;5035444;28;20029;-64
2022/03/01 02:39:23;;;;;;;16.58;3.88;;;;;;;;;;5033847;28;20049;-64
2022/03/01 02:41:50;;;;;;;13.18;4.25;;;;;;;;;;5039020;28;20051;-64
2022/03/01 02:44:16;;;;;;;16.38;5.15;;;;;;;;;;5044855;28;20028;-64
2022/03/01 02:46:42;;;;;;;12.95;3.85;;;;;;;;;;5051788;28;20052;-64
2022/03/01 02:49:09;;;;;;;11.10;3.85;;;;;;;;;;5048563;28;20108;-64
2022/03/01 02:51:35;;;;;;;10.40;3.95;;;;;;;;;;5032724;28;20021;-64
2022/03/01 02:54:02;;;;;;;9.48;3.70;;;;;;;;;;5033325;28;20025;-64
2022/03/01 02:56:28;;;;;;;12.07;4.05;;;;;;;;;;5038177;28;20425;-64
2022/03/01 02:58:55;;;;;;;9.25;3.30;;;;;;;;;;5050823;28;20433;-64
2022/03/01 03:01:24;;;;;;;12.90;3.70;;;;;;;;;;5052892;28;20040;-64
2022/03/01 03:03:50;;;;;;;8.30;3.20;;;;;;;;;;5052403;28;20021;-64
2022/03/01 03:06:19;;;;;;;11.85;3.10;;;;;;;;;;5039622;28;20401;-64
2022/03/01 03:08:46;;;;;;;7.82;2.67;;;;;;;;;;5032621;28;20026;-64
2022/03/01 03:11:12;;;;;;;10.55;2.78;;;;;;;;;;5032721;28;20509;-64
2022/03/01 03:13:38;;;;;;;9.38;2.97;;;;;;;;;;5032974;28;20437;-64
2022/03/01 03:16:07;;;;;;;8.07;2.88;;;;;;;;;;5032605;28;20045;-64
2022/03/01 03:18:34;;;;;;;8.48;3.40;;;;;;;;;;5032451;28;20033;-64
2022/03/01 03:21:00;;;;;;;9.85;3.20;;;;;;;;;;5032426;28;20037;-64
2022/03/01 03:23:26;;;;;;;7.45;2.63;;;;;;;;;;5032677;28;20022;-64
2022/03/01 03:25:52;;;;;;;8.43;3.40;;;;;;;;;;5032374;28;20044;-64
2022/03/01 03:28:18;;;;;;;11.02;3.17;;;;;;;;;;5032624;28;20401;-64
2022/03/01 03:30:44;;;;;;;6.75;3.10;;;;;;;;;;5032485;28;20481;-64
2022/03/01 03:33:10;;;;;;;5.43;2.65;;;;;;;;;;5032210;28;20034;-64
2022/03/01 03:35:36;;;;;;;7.07;3.33;;;;;;;;;;5032514;28;20036;-64
2022/03/01 03:38:03;;;;;;;7.35;2.92;;;;;;;;;;5041266;28;20025;-64
2022/03/01 03:40:29;;;;;;;7.35;3.38;;;;;;;;;;5051988;28;20029;-64
2022/03/01 03:42:55;;;;;;;7.97;3.13;;;;;;;;;;5038948;28;20025;-64
2022/03/01 03:45:22;;;;;;;8.38;4.47;;;;;;;;;;5033030;28;20052;-64
2022/03/01 03:47:48;;;;;;;11.30;3.30;;;;;;;;;;5032215;28;20116;-64
2022/03/01 03:50:15;;;;;;;7.57;3.42;;;;;;;;;;5032290;28;20067;-64
2022/03/01 03:52:41;;;;;;;7.38;2.75;;;;;;;;;;5032113;28;20033;-64
2022/03/01 03:55:09;;;;;;;7.10;3.03;;;;;;;;;;5041944;28;20032;-64
2022/03/01 03:57:35;;;;;;;6.03;3.15;;;;;;;;;;5052053;28;20029;-64
2022/03/01 04:00:03;;;;;;;9.65;3.70;;;;;;;;;;5052025;28;20032;-64
2022/03/01 04:02:31;;;;;;;7.05;3.20;;;;;;;;;;5054724;28;20032;-64
2022/03/01 04:04:57;;;;;;;6.97;3.38;;;;;;;;;;5055760;28;20039;-64
2022/03/01 04:07:24;;;;;;;9.88;3.90;;;;;;;;;;5055980;28;20036;-64
2022/03/01 04:09:50;;;;;;;7.80;3.42;;;;;;;;;;5056046;28;20055;-63
2022/03/01 04:12:16;;;;;;;7.18;3.40;;;;;;;;;;5055985;28;20063;-64
2022/03/01 04:14:43;;;;;;;9.48;3.92;;;;;;;;;;5055635;28;20064;-64
2022/03/01 04:17:10;;;;;;;5.40;3.30;;;;;;;;;;5055811;28;20408;-64
2022/03/01 04:19:36;;;;;;;8.77;3.92;;;;;;;;;;5055681;28;20082;-64
2022/03/01 04:22:02;;;;;;;7.60;3.70;;;;;;;;;;5055709;28;20025;-63
2022/03/01 04:24:29;;;;;;;9.77;3.92;;;;;;;;;;5055971;28;20380;-63
2022/03/01 04:26:55;;;;;;;8.45;3.70;;;;;;;;;;5055656;28;20029;-64
2022/03/01 04:29:21;;;;;;;8.75;3.28;;;;;;;;;;5055519;28;20029;-64
2022/03/01 04:31:47;;;;;;;10.10;3.65;;;;;;;;;;5055606;28;20029;-64
2022/03/01 04:34:13;;;;;;;6.47;3.78;;;;;;;;;;5055598;28;20025;-63
2022/03/01 04:36:39;;;;;;;8.02;3.75;;;;;;;;;;5055654;28;20016;-64
2022/03/01 04:39:05;;;;;;;11.90;4.43;;;;;;;;;;5055280;28;20025;-64
2022/03/01 04:41:32;;;;;;;7.80;4.20;;;;;;;;;;5055432;28;20036;-64
2022/03/01 04:43:58;;;;;;;8.27;3.80;;;;;;;;;;5054975;28;20092;-64
2022/03/01 04:46:24;;;;;;;11.15;4.30;;;;;;;;;;5055521;28;20032;-64
2022/03/01 04:48:50;;;;;;;12.50;4.15;;;;;;;;;;5055328;28;20468;-64
2022/03/01 04:51:21;;;;;;;9.85;4.97;;;;;;;;;;5055348;28;20481;-64
2022/03/01 04:53:51;;;;;;;12.57;4.03;;;;;;;;;;5055223;28;20040;-64
2022/03/01 04:56:17;;;;;;;8.57;3.75;;;;;;;;;;5055080;28;20506;-64
2022/03/01 04:58:43;;;;;;;10.43;4.90;;;;;;;;;;5055112;28;20029;-64
2022/03/01 05:01:10;;;;;;;9.70;5.07;;;;;;;;;;5054983;28;20029;-64
2022/03/01 05:03:36;;;;;;;6.55;4.43;;;;;;;;;;5055121;28;20486;-64
2022/03/01 05:06:02;;;;;;;7.43;4.03;;;;;;;;;;5054976;28;20028;-64
2022/03/01 05:08:30;;;;;;;11.13;4.00;;;;;;;;;;5055385;28;20040;-64
2022/03/01 05:11:00;;;;;;;9.70;4.13;;;;;;;;;;5054715;28;20047;-64
2022/03/01 05:13:27;;;;;;;9.00;4.18;;;;;;;;;;5054463;28;20059;-64
2022/03/01 05:15:53;;;;;;;8.57;3.63;;;;;;;;;;5054873;28;20104;-64
2022/03/01 05:18:21;;;;;;;7.60;3.92;;;;;;;;;;5054756;28;20025;-64
2022/03/01 05:20:47;;;;;;;11.65;3.95;;;;;;;;;;5053547;28;20118;-64
2022/03/01 05:23:13;;;;;;;6.78;3.65;;;;;;;;;;5054695;28;20048;-64
2022/03/01 05:25:39;;;;;;;10.85;4.35;;;;;;;;;;5054734;28;20519;-64
2022/03/01 05:28:06;;;;;;;7.50;3.63;;;;;;;;;;5054028;28;20115;-64
2022/03/01 05:30:32;;;;;;;10.75;3.72;;;;;;;;;;5041221;28;20029;-63
2022/03/01 05:32:58;;;;;;;8.48;3.63;;;;;;;;;;5049497;28;20036;-63
2022/03/01 05:35:26;;;;;;;6.38;3.47;;;;;;;;;;5057488;28;20033;-63
2022/03/01 05:37:54;;;;;;;6.47;3.47;;;;;;;;;;5054218;28;20040;-63
2022/03/01 05:40:21;;;;;;;6.82;3.10;;;;;;;;;;5046866;28;20036;-63
2022/03/01 05:42:47;;;;;;;6.22;3.50;;;;;;;;;;5038946;28;20389;-63
2022/03/01 05:45:13;;;;;;;7.13;3.58;;;;;;;;;;5035565;28;20373;-63
2022/03/01 05:47:45;;;;;;;8.13;3.70;;;;;;;;;;5054983;28;20485;-63
2022/03/01 05:50:12;;;;;;;6.88;3.60;;;;;;;;;;5054531;28;20081;-63
2022/03/01 05:52:38;;;;;;;7.20;3.50;;;;;;;;;;5054751;28;20029;-63
2022/03/01 05:55:06;;;;;;;10.65;4.93;;;;;;;;;;5051466;28;20053;-63
2022/03/01 05:57:32;;;;;;;13.65;6.50;;;;;;;;;;5044382;28;20029;-63
2022/03/01 05:59:59;;;;;;;14.10;7.05;;;;;;;;;;5043252;28;20120;-63
2022/03/01 06:02:25;;;;;;;12.75;5.05;;;;;;;;;;5039869;28;20025;-63
2022/03/01 06:04:52;;;;;;;9.43;5.43;;;;;;;;;;5036879;28;20374;-63
2022/03/01 06:07:18;;;;;;;11.77;5.07;;;;;;;;;;5041386;28;20049;-63
2022/03/01 06:09:44;;;;;;;12.23;5.03;;;;;;;;;;5049995;28;20028;-63
2022/03/01 06:12:10;;;;;;;14.45;5.63;;;;;;;;;;5040484;28;20509;-63
2022/03/01 06:14:37;;;;;;;14.73;4.70;;;;;;;;;;5043278;28;20033;-63
2022/03/01 06:17:03;;;;;;;9.57;4.53;;;;;;;;;;5049897;28;20033;-63
2022/03/01 06:19:29;;;;;;;10.13;4.53;;;;;;;;;;5038847;28;20021;-63
2022/03/01 06:21:56;;;;;;;14.63;5.50;;;;;;;;;;5051552;28;20486;-63
2022/03/01 06:24:23;;;;;;;9.50;5.30;;;;;;;;;;5035376;28;20070;-64
2022/03/01 06:26:49;;;;;;;14.82;6.40;;;;;;;;;;5042097;28;20025;-64
2022/03/01 06:29:15;;;;;;;11.45;5.28;;;;;;;;;;5051102;28;20158;-63
2022/03/01 06:31:42;;;;;;;10.10;5.70;;;;;;;;;;5037871;28;20108;-64
2022/03/01 06:34:08;;;;;;;10.05;5.10;;;;;;;;;;5032661;28;20427;-63
2022/03/01 06:36:34;;;;;;;16.45;5.72;;;;;;;;;;5035050;28;20032;-71
2022/03/01 06:39:00;;;;;;;12.48;5.75;;;;;;;;;;5039363;28;20044;-63
2022/03/01 06:41:26;;;;;;;12.55;5.57;;;;;;;;;;5039906;28;20120;-63
2022/03/01 06:43:52;;;;;;;17.13;6.38;;;;;;;;;;5032686;28;20025;-63
2022/03/01 06:46:20;;;;;;;12.60;5.35;;;;;;;;;;5042719;28;20041;-63
2022/03/01 06:48:47;;;;;;;12.40;6.18;;;;;;;;;;5053419;28;20423;-63
2022/03/01 06:51:13;;;;;;;12.40;6.28;;;;;;;;;;5053180;28;20025;-63
2022/03/01 06:53:39;;;;;;;14.02;6.15;;;;;;;;;;5053012;28;20024;-63
2022/03/01 06:56:05;;;;;;;11.93;6.47;;;;;;;;;;5052039;28;20455;-63
2022/03/01 06:58:31;;;;;;;17.10;9.30;;;;;;;;;;5052751;28;20467;-63
2022/03/01 07:01:00;;;;;;;18.50;9.55;;;;;;;;;;5052802;28;20039;-63
2022/03/01 07:03:27;;;;;;;16.42;7.72;;;;;;;;;;5052597;28;20017;-63
2022/03/01 07:05:53;;;;;;;12.43;7.85;;;;;;;;;;5052656;28;20033;-63
2022/03/01 07:08:23;;;;;;;16.13;7.28;;;;;;;;;;5052423;28;20023;-63
2022/03/01 07:10:49;;;;;;;12.40;6.40;;;;;;;;;;5052160;28;20033;-64
2022/03/01 07:13:15;;;;;;;12.05;7.43;;;;;;;;;;5052571;28;20413;-63
2022/03/01 07:15:42;;;;;;;12.20;6.68;;;;;;;;;;5052584;28;20051;-64
2022/03/01 07:18:08;;;;;;;19.52;7.00;;;;;;;;;;5052343;28;20564;-63
2022/03/01 07:20:37;;;;;;;18.67;7.20;;;;;;;;;;5052325;28;20037;-64
2022/03/01 07:23:04;;;;;;;15.77;7.28;;;;;;;;;;5052294;28;20408;-64
2022/03/01 07:25:30;;;;;;;15.23;7.07;;;;;;;;;;5052318;28;20045;-63
2022/03/01 07:27:57;;;;;;;13.77;7.57;;;;;;;;;;5042304;28;20029;-63
2022/03/01 07:30:25;;;;;;;14.30;7.45;;;;;;;;;;5033360;28;20099;-63
2022/03/01 07:32:54;;;;;;;15.45;7.38;;;;;;;;;;5044734;28;20389;-63
2022/03/01 07:35:21;;;;;;;11.25;6.65;;;;;;;;;;5047983;28;20028;-63
2022/03/01 07:37:47;;;;;;;12.07;6.65;;;;;;;;;;5041881;28;20041;-63
2022/03/01 07:40:14;;;;;;;14.10;6.28;;;;;;;;;;5037058;28;20413;-63
2022/03/01 07:42:40;;;;;;;11.10;5.80;;;;;;;;;;5032985;28;20462;-63
2022/03/01 07:45:07;;;;;;;8.55;5.25;;;;;;;;;;5032942;28;20057;-63
2022/03/01 07:47:33;;;;;;;10.32;5.68;;;;;;;;;;5032696;28;20459;-63
2022/03/01 07:49:59;;;;;;;8.80;4.82;;;;;;;;;;5032423;28;20037;-63
2022/03/01 07:52:25;;;;;;;9.95;5.20;;;;;;;;;;5032345;28;20033;-63
2022/03/01 07:54:51;;;;;;;8.68;5.50;;;;;;;;;;5032615;28;20120;-63
2022/03/01 07:57:18;;;;;;;7.78;5.10;;;;;;;;;;5032740;28;20061;-63
2022/03/01 07:59:44;;;;;;;9.60;5.30;;;;;;;;;;5039051;28;20032;-63
2022/03/01 08:02:11;;;;;;;8.68;4.45;;;;;;;;;;5052784;28;20079;-62
2022/03/01 08:04:38;;;;;;;8.77;4.82;;;;;;;;;;5052589;28;20017;-63
2022/03/01 08:07:04;;;;;;;11.45;4.85;;;;;;;;;;5052298;28;20029;-62
2022/03/01 08:09:30;;;;;;;6.05;4.85;;;;;;;;;;5048553;28;20078;-63
2022/03/01 08:11:56;;;;;;;7.95;5.13;;;;;;;;;;5052348;28;20041;-63
2022/03/01 08:14:22;;;;;;;7.65;4.68;;;;;;;;;;5052261;28;20021;-63
2022/03/01 08:16:49;;;;;;;9.02;4.80;;;;;;;;;;5046576;28;20021;-63
2022/03/01 08:19:15;;;;;;;9.30;4.65;;;;;;;;;;5032574;28;20112;-63
2022/03/01 08:21:41;;;;;;;14.40;5.40;;;;;;;;;;5031975;28;20120;-63
2022/03/01 08:24:07;;;;;;;9.20;5.10;;;;;;;;;;5032708;28;20029;-63
2022/03/01 08:26:33;;;;;;;6.68;4.38;;;;;;;;;;5033113;28;20396;-63
2022/03/01 08:28:59;;;;;;;6.53;4.43;;;;;;;;;;5032608;28;20021;-63
2022/03/01 08:31:25;;;;;;;7.90;4.90;;;;;;;;;;5032485;28;20033;-63
2022/03/01 08:33:51;;;;;;;6.72;5.07;;;;;;;;;;5034505;28;20048;-63
2022/03/01 08:36:18;;;;;;;9.30;4.78;;;;;;;;;;5033833;28;20108;-63
2022/03/01 08:38:44;;;;;;;7.57;5.13;;;;;;;;;;5032446;28;20180;-63
2022/03/01 08:41:10;;;;;;;9.40;4.68;;;;;;;;;;5032324;28;20029;-63
2022/03/01 08:43:36;;;;;;;6.88;4.80;;;;;;;;;;5032134;28;20030;-63
2022/03/01 08:46:02;;;;;;;6.88;4.65;;;;;;;;;;5041874;28;20484;-63
2022/03/01 08:48:28;;;;;;;6.72;4.53;;;;;;;;;;5054371;28;20021;-63
2022/03/01 08:50:54;;;;;;;7.65;4.90;;;;;;;;;;5055544;28;20025;-63
2022/03/01 08:53:21;;;;;;;7.13;5.00;;;;;;;;;;5055892;28;20075;-63
2022/03/01 08:55:48;;;;;;;8.65;5.80;;;;;;;;;;5046451;28;20045;-63
2022/03/01 08:58:14;;;;;;;9.43;6.10;;;;;;;;;;5046618;28;20044;-63
2022/03/01 09:00:41;;;;;;;6.78;4.80;;;;;;;;;;5045589;28;20405;-64
2022/03/01 09:03:07;;;;;;;6.75;5.07;;;;;;;;;;5046526;28;20370;-63
2022/03/01 09:05:34;;;;;;;7.97;4.95;;;;;;;;;;5044966;28;20024;-63
2022/03/01 09:08:00;;;;;;;9.27;5.95;;;;;;;;;;5043653;28;20014;-63
2022/03/01 09:10:27;;;;;;;8.60;5.65;;;;;;;;;;5044479;28;20442;-63
2022/03/01 09:12:53;;;;;;;10.43;6.30;;;;;;;;;;5044781;28;20052;-63
2022/03/01 09:15:20;;;;;;;8.00;5.93;;;;;;;;;;5037423;28;20029;-63
2022/03/01 09:17:46;;;;;;;10.05;6.20;;;;;;;;;;5042235;28;20029;-63
2022/03/01 09:20:13;;;;;;;9.00;5.60;;;;;;;;;;5038182;28;20041;-63
2022/03/01 09:22:39;;;;;;;8.32;5.65;;;;;;;;;;5042215;28;20025;-63
2022/03/01 09:25:06;;;;;;;7.88;4.75;;;;;;;;;;5046079;28;20021;-63
2022/03/01 09:27:33;;;;;;;9.82;5.85;;;;;;;;;;5043744;28;20082;-63
2022/03/01 09:29:59;;;;;;;7.80;4.75;;;;;;;;;;5043873;28;20123;-63
2022/03/01 09:32:26;;;;;;;14.20;7.10;;;;;;;;;;5044209;28;20026;-63
2022/03/01 09:34:52;;;;;;;14.73;7.57;;;;;;;;;;5048166;28;20031;-63
2022/03/01 09:37:18;;;;;;;16.45;9.23;;;;;;;;;;5040284;28;20027;-63
2022/03/01 09:39:44;;;;;;;17.83;8.90;;;;;;;;;;5043730;28;20469;-63
2022/03/01 09:42:11;;;;;;;8.50;5.93;;;;;;;;;;5045064;28;20009;-63
2022/03/01 09:44:37;;;;;;;9.95;5.80;;;;;;;;;;5039898;28;20112;-63
2022/03/01 09:47:04;;;;;;;10.10;5.93;;;;;;;;;;5036744;28;20108;-63
2022/03/01 09:49:30;;;;;;;10.75;5.60;;;;;;;;;;5044258;28;20017;-63
2022/03/01 09:51:56;;;;;;;10.30;5.97;;;;;;;;;;5036164;28;20041;-63
2022/03/01 09:54:23;;;;;;;10.80;6.55;;;;;;;;;;5046651;28;20041;-63
2022/03/01 09:56:49;;;;;;;9.32;6.00;;;;;;;;;;5044278;28;20091;-63
2022/03/01 09:59:15;;;;;;;8.75;6.15;;;;;;;;;;5038161;28;20025;-63
2022/03/01 10:01:49;;;;;;;10.95;6.75;;;;;;;;;;5042420;28;20060;-63
2022/03/01 10:04:15;;;;;;;8.90;5.78;;;;;;;;;;5042735;28;20032;-63
2022/03/01 10:06:42;;;;;;;9.55;6.07;;;;;;;;;;5047908;28;20017;-63
2022/03/01 10:09:12;;;;;;;8.85;6.50;;;;;;;;;;5041328;28;20079;-63
2022/03/01 10:11:39;;;;;;;8.70;5.80;;;;;;;;;;5041031;28;20071;-63
2022/03/01 10:14:05;;;;;;;9.65;6.47;;;;;;;;;;5041195;28;20045;-63
2022/03/01 10:16:45;;;;;;;9.73;6.88;;;;;;;;;;5044344;28;20033;-63
2022/03/01 10:19:18;;;;;;;13.77;7.10;;;;;;;;;;5041538;28;20112;-63
2022/03/01 10:21:48;;;;;;;10.95;7.15;;;;;;;;;;5043198;28;20488;-63
2022/03/01 10:24:19;;;;;;;8.80;6.10;;;;;;;;;;5044538;28;20068;-63
2022/03/01 10:26:47;;;;;;;9.40;6.18;;;;;;;;;;5037510;28;20075;-63
2022/03/01 10:29:13;;;;;;;9.00;6.40;;;;;;;;;;5045443;28;20094;-63
2022/03/01 10:31:40;;;;;;;8.82;6.05;;;;;;;;;;5053221;28;20028;-63
2022/03/01 10:34:10;;;;;;;8.38;6.13;;;;;;;;;;5044492;28;20539;-63
2022/03/01 10:36:46;;;;;;;11.20;7.15;;;;;;;;;;5041419;28;20402;-63
2022/03/01 10:39:13;;;;;;;9.88;6.40;;;;;;;;;;5043384;28;20040;-63
2022/03/01 10:41:41;;;;;;;8.30;6.35;;;;;;;;;;5042046;28;20484;-63
2022/03/01 10:44:12;;;;;;;8.07;5.75;;;;;;;;;;5040899;28;20053;-63
2022/03/01 10:46:42;;;;;;;9.90;5.93;;;;;;;;;;5040353;28;20064;-63
2022/03/01 10:49:10;;;;;;;9.48;6.47;;;;;;;;;;5044280;28;20108;-63
2022/03/01 10:51:49;;;;;;;10.95;7.70;;;;;;;;;;5037177;28;20025;-63
2022/03/01 10:54:34;;;;;;;12.70;8.23;;;;;;;;;;5044736;28;20034;-63
2022/03/01 10:57:01;;;;;;;10.65;6.80;;;;;;;;;;5038385;28;20032;-63
2022/03/01 10:59:28;;;;;;;12.90;8.00;;;;;;;;;;5050190;28;20055;-63
2022/03/01 11:01:56;;;;;;;15.05;8.75;;;;;;;;;;5042002;28;20112;-63
2022/03/01 11:04:22;;;;;;;15.60;8.38;;;;;;;;;;5040128;28;20029;-63
2022/03/01 11:06:49;;;;;;;10.88;7.63;;;;;;;;;;5041338;28;20381;-63
2022/03/01 11:09:16;;;;;;;12.02;8.50;;;;;;;;;;5043213;28;20017;-63
2022/03/01 11:11:43;;;;;;;10.88;7.68;;;;;;;;;;5041337;28;20063;-63
2022/03/01 11:14:11;;;;;;;12.40;8.23;;;;;;;;;;5040181;28;20412;-63
2022/03/01 11:17:03;;;;;;;12.88;7.85;;;;;;;;;;5041322;28;20564;-63
2022/03/01 11:19:45;;;;;;;11.32;8.13;;;;;;;;;;5039974;28;20049;-63
2022/03/01 11:22:29;;;;;;;12.65;8.75;;;;;;;;;;5039672;28;20430;-63
2022/03/01 11:24:56;;;;;;;16.38;10.45;;;;;;;;;;5041763;28;20536;-63
2022/03/01 11:27:24;;;;;;;17.38;10.98;;;;;;;;;;5039623;28;20029;-63
2022/03/01 11:29:51;;;;;;;19.65;10.90;;;;;;;;;;5040367;28;20021;-63
2022/03/01 11:32:20;;;;;;;16.60;7.80;;;;;;;;;;5042761;28;20385;-63
2022/03/01 11:34:47;;;;;;;11.80;5.85;;;;;;;;;;5037580;28;20485;-63
2022/03/01 11:37:17;;;;;;;6.55;4.32;;;;;;;;;;5042614;28;20481;-63
2022/03/01 11:39:44;;;;;;;7.60;4.20;;;;;;;;;;5039817;28;20041;-63
2022/03/01 11:42:14;;;;;;;8.50;4.57;;;;;;;;;;5039302;28;20409;-63
2022/03/01 11:44:41;;;;;;;8.15;5.35;;;;;;;;;;5040230;28;20033;-63
2022/03/01 11:47:09;;;;;;;10.48;5.70;;;;;;;;;;5042334;28;20162;-63
2022/03/01 11:49:37;;;;;;;8.88;5.25;;;;;;;;;;5042874;28;20025;-63
2022/03/01 11:52:03;;;;;;;11.48;5.78;;;;;;;;;;5038666;28;20112;-64
2022/03/01 11:54:31;;;;;;;6.45;4.50;;;;;;;;;;5040744;28;20033;-64
2022/03/01 11:56:58;;;;;;;5.90;4.00;;;;;;;;;;5047932;28;20029;-64
2022/03/01 11:59:24;;;;;;;5.18;3.47;;;;;;;;;;5039603;28;20025;-64
2022/03/01 12:01:52;;;;;;;7.63;3.72;;;;;;;;;;5045465;28;20046;-64
2022/03/01 12:04:22;;;;;;;3.78;2.20;;;;;;;;;;5041040;28;20144;-64
2022/03/01 12:06:54;;;;;;;4.15;1.50;;;;;;;;;;5033805;28;20029;-64
2022/03/01 12:09:21;;;;;;;6.15;1.60;;;;;;;;;;5044875;28;20052;-64
2022/03/01 12:11:47;;;;;;;3.15;1.70;;;;;;;;;;5045687;28;20057;-64
2022/03/01 12:14:20;;;;;;;2.33;1.65;;;;;;;;;;5032683;28;20029;-64
2022/03/01 12:16:46;;;;;;;3.97;1.63;;;;;;;;;;5037456;28;20494;-64
2022/03/01 12:19:15;;;;;;;2.90;1.52;;;;;;;;;;5034398;28;20284;-64
2022/03/01 12:21:50;;;;;;;5.90;2.05;;;;;;;;;;5039648;28;20432;-64
2022/03/01 12:24:16;;;;;;;6.60;2.10;;;;;;;;;;5038903;28;20021;-64
2022/03/01 12:26:44;;;;;;;6.18;2.60;;;;;;;;;;5041898;28;20456;-64
2022/03/01 12:29:11;;;;;;;5.97;2.75;;;;;;;;;;5040270;28;20097;-64
2022/03/01 12:31:37;;;;;;;4.90;3.03;;;;;;;;;;5036475;28;20072;-64
2022/03/01 12:34:05;;;;;;;6.50;2.95;;;;;;;;;;5042735;28;20030;-64
2022/03/01 12:36:34;;;;;;;8.07;3.58;;;;;;;;;;5036815;28;20033;-64
2022/03/01 12:39:03;;;;;;;11.05;3.90;;;;;;;;;;5048832;28;20017;-64
2022/03/01 12:41:30;;;;;;;9.45;3.40;;;;;;;;;;5045700;28;20037;-64
2022/03/01 12:43:56;;;;;;;8.85;3.28;;;;;;;;;;5043389;28;20030;-63
2022/03/01 12:46:23;;;;;;;9.57;3.55;;;;;;;;;;5041480;28;20033;-64
2022/03/01 12:48:50;;;;;;;8.57;2.97;;;;;;;;;;5039274;28;20053;-64
2022/03/01 12:51:16;;;;;;;15.30;4.13;;;;;;;;;;5036986;28;20026;-64
2022/03/01 12:53:56;;;;;;;18.65;4.25;;;;;;;;;;5037048;28;20033;-64
2022/03/01 12:56:23;;;;;;;12.10;3.55;;;;;;;;;;5034942;28;20069;-64
2022/03/01 12:58:50;;;;;;;12.73;3.72;;;;;;;;;;5035244;28;20478;-64
2022/03/01 13:01:16;;;;;;;12.02;4.07;;;;;;;;;;5035130;28;20040;-64
2022/03/01 13:03:44;;;;;;;10.20;4.15;;;;;;;;;;5035169;28;20040;-64
2022/03/01 13:06:11;;;;;;;12.63;5.05;;;;;;;;;;5035199;28;20040;-64
2022/03/01 13:08:39;;;;;;;13.45;4.88;;;;;;;;;;5035090;28;20036;-64
2022/03/01 13:11:08;;;;;;;15.75;4.68;;;;;;;;;;5034443;28;20075;-64
2022/03/01 13:13:46;;;;;;;18.63;5.38;;;;;;;;;;5034884;28;20083;-64
2022/03/01 13:16:20;;;;;;;15.63;5.45;;;;;;;;;;5034954;28;20214;-64
2022/03/01 13:18:46;;;;;;;15.45;5.15;;;;;;;;;;5035085;28;20033;-64
2022/03/01 13:21:12;;;;;;;20.00;7.97;;;;;;;;;;5034679;28;20485;-64
2022/03/01 13:23:39;;;;;;;16.95;6.20;;;;;;;;;;5034765;28;20034;-64
2022/03/01 13:26:05;;;;;;;17.33;5.18;;;;;;;;;;5034596;28;20098;-64
2022/03/01 13:28:35;;;;;;;16.95;6.10;;;;;;;;;;5034621;28;20025;-64
2022/03/01 13:31:02;;;;;;;15.20;4.95;;;;;;;;;;5034784;28;20436;-64
2022/03/01 13:33:28;;;;;;;20.80;5.82;;;;;;;;;;5034110;28;20057;-64
2022/03/01 13:35:55;;;;;;;18.33;5.45;;;;;;;;;;5054761;28;20032;-64
2022/03/01 13:38:22;;;;;;;19.55;5.25;;;;;;;;;;5054435;28;20028;-63
2022/03/01 13:40:49;;;;;;;15.20;4.70;;;;;;;;;;5054080;28;20033;-63
2022/03/01 13:43:17;;;;;;;19.15;4.93;;;;;;;;;;5054428;28;20125;-63
2022/03/01 13:45:43;;;;;;;13.23;4.43;;;;;;;;;;5054427;28;20448;-63
2022/03/01 13:48:11;;;;;;;12.65;4.70;;;;;;;;;;5053171;28;20025;-63
2022/03/01 13:50:37;;;;;;;12.85;4.57;;;;;;;;;;5054275;28;20044;-63
2022/03/01 13:53:11;;;;;;;19.80;5.15;;;;;;;;;;5054515;28;20025;-63
2022/03/01 13:55:37;;;;;;;22.38;6.68;;;;;;;;;;5053594;28;20040;-63
2022/03/01 13:58:03;;;;;;;12.65;5.50;;;;;;;;;;5054329;28;20108;-63
2022/03/01 14:00:31;;;;;;;16.17;5.57;;;;;;;;;;5054062;28;20111;-63
2022/03/01 14:02:59;;;;;;;18.15;5.20;;;;;;;;;;5054054;28;20025;-63
2022/03/01 14:05:26;;;;;;;16.80;5.15;;;;;;;;;;5053788;28;20032;-63
2022/03/01 14:08:04;;;;;;;18.17;5.55;;;;;;;;;;5054036;28;20028;-63
2022/03/01 14:10:31;;;;;;;19.70;6.25;;;;;;;;;;5053456;28;20031;-63
2022/03/01 14:13:16;;;;;;;14.57;5.28;;;;;;;;;;5053646;28;20118;-63
2022/03/01 14:15:45;;;;;;;14.38;5.57;;;;;;;;;;5053796;28;20041;-63
2022/03/01 14:18:12;;;;;;;13.43;5.78;;;;;;;;;;5053799;28;20021;-63
2022/03/01 14:20:40;;;;;;;18.52;5.55;;;;;;;;;;5053504;28;20481;-63
2022/03/01 14:23:07;;;;;;;14.45;5.35;;;;;;;;;;5053681;28;20025;-63
2022/03/01 14:25:33;;;;;;;11.43;4.88;;;;;;;;;;5053025;28;20028;-63
2022/03/01 14:27:59;;;;;;;21.05;5.43;;;;;;;;;;5053646;28;20021;-63
2022/03/01 14:30:25;;;;;;;16.80;5.88;;;;;;;;;;5053451;28;20095;-63
2022/03/01 14:32:54;;;;;;;16.10;5.07;;;;;;;;;;5053513;28;20550;-63
2022/03/01 14:35:20;;;;;;;16.30;5.07;;;;;;;;;;5053243;28;20032;-63